createdAt,value
2023-07-18T00:01:47.933Z,3.42
2023-07-18T00:04:20.774Z,3.45
2023-07-18T00:06:50.923Z,2.83
2023-07-18T00:09:21.147Z,3.88
2023-07-18T00:11:51.497Z,3.08
2023-07-18T00:14:21.874Z,3.28
2023-07-18T00:16:52.056Z,3.50
2023-07-18T00:19:24.867Z,2.95
2023-07-18T00:21:55.003Z,3.38
2023-07-18T00:24:25.192Z,3.08
2023-07-18T00:26:56.261Z,3.20
2023-07-18T00:29:26.730Z,2.40
2023-07-18T00:31:57.914Z,3.20
2023-07-18T00:34:30.795Z,3.00
2023-07-18T00:37:00.966Z,2.42
2023-07-18T00:39:31.151Z,2.60
2023-07-18T00:42:01.892Z,2.58
2023-07-18T00:44:32.051Z,2.13
2023-07-18T00:47:02.261Z,2.30
2023-07-18T00:49:36.121Z,2.50
2023-07-18T00:52:07.680Z,2.45
2023-07-18T00:54:38.076Z,3.10
2023-07-18T00:57:10.419Z,2.72
2023-07-18T00:59:41.891Z,2.45
2023-07-18T01:02:12.183Z,2.90
2023-07-18T01:04:46.008Z,2.53
2023-07-18T01:07:16.991Z,3.03
2023-07-18T01:09:48.673Z,3.10
2023-07-18T01:12:18.837Z,2.30
2023-07-18T01:14:50.716Z,2.67
2023-07-18T01:17:22.558Z,2.45
2023-07-18T01:19:55.344Z,2.83
2023-07-18T01:22:28.158Z,2.80
2023-07-18T01:24:58.328Z,2.40
2023-07-18T01:27:28.488Z,2.70
2023-07-18T01:29:58.704Z,2.70
2023-07-18T01:32:28.904Z,2.28
2023-07-18T01:34:59.051Z,2.47
2023-07-18T01:37:31.795Z,2.30
2023-07-18T01:40:03.096Z,2.17
2023-07-18T01:42:33.273Z,2.42
2023-07-18T01:45:04.065Z,2.08
2023-07-18T01:47:35.496Z,2.75
2023-07-18T01:50:05.961Z,2.28
2023-07-18T01:52:39.195Z,2.38
2023-07-18T01:55:11.163Z,2.22
2023-07-18T01:57:49.289Z,2.50
2023-07-18T02:00:23.819Z,2.40
2023-07-18T02:02:55.718Z,1.77
2023-07-18T02:05:27.133Z,2.10
2023-07-18T02:08:00.238Z,2.60
2023-07-18T02:10:30.836Z,2.30
2023-07-18T02:13:03.167Z,2.30
2023-07-18T02:15:34.956Z,2.58
2023-07-18T02:18:08.339Z,2.60
2023-07-18T02:20:38.541Z,2.40
2023-07-18T02:23:14.414Z,2.20
2023-07-18T02:25:44.650Z,1.98
2023-07-18T02:28:15.380Z,2.20
2023-07-18T02:30:46.265Z,2.25
2023-07-18T02:33:16.583Z,1.80
2023-07-18T02:35:51.787Z,2.03
2023-07-18T02:38:24.612Z,2.08
2023-07-18T02:40:55.029Z,2.90
2023-07-18T02:43:26.818Z,2.42
2023-07-18T02:45:57.405Z,1.92
2023-07-18T02:48:27.587Z,2.28
2023-07-18T02:50:57.789Z,2.00
2023-07-18T02:53:30.535Z,1.92
2023-07-18T02:56:00.710Z,1.63
2023-07-18T02:58:30.993Z,2.50
2023-07-18T03:01:01.283Z,2.13
2023-07-18T03:03:31.774Z,2.42
2023-07-18T03:06:02.204Z,2.30
2023-07-18T03:08:55.797Z,2.30
2023-07-18T03:11:26.981Z,2.90
2023-07-18T03:13:58.030Z,2.50
2023-07-18T03:16:28.209Z,2.28
2023-07-18T03:19:00.465Z,2.63
2023-07-18T03:21:30.643Z,2.70
2023-07-18T03:24:03.927Z,2.22
2023-07-18T03:26:34.121Z,2.33
2023-07-18T03:29:05.245Z,2.40
2023-07-18T03:31:37.104Z,2.00
2023-07-18T03:34:08.048Z,2.10
2023-07-18T03:36:39.014Z,2.45
2023-07-18T03:39:12.189Z,2.03
2023-07-18T03:41:42.830Z,2.42
2023-07-18T03:44:13.033Z,2.30
2023-07-18T03:46:43.260Z,2.28
2023-07-18T03:49:13.576Z,2.17
2023-07-18T03:51:43.715Z,1.90
2023-07-18T03:54:17.135Z,2.20
2023-07-18T03:56:47.878Z,1.75
2023-07-18T03:59:18.014Z,2.03
2023-07-18T04:01:48.351Z,2.05
2023-07-18T04:04:18.653Z,2.15
2023-07-18T04:06:48.883Z,2.17
2023-07-18T04:09:21.702Z,1.90
2023-07-18T04:11:52.331Z,1.85
2023-07-18T04:14:22.420Z,1.80
2023-07-18T04:16:52.729Z,1.65
2023-07-18T04:19:22.940Z,1.58
2023-07-18T04:21:53.090Z,1.38
2023-07-18T04:24:25.850Z,1.80
2023-07-18T04:26:55.986Z,1.52
2023-07-18T04:29:26.139Z,2.28
2023-07-18T04:31:56.613Z,1.80
2023-07-18T04:34:26.803Z,1.80
2023-07-18T04:36:57.142Z,1.92
2023-07-18T04:39:29.900Z,2.22
2023-07-18T04:42:00.129Z,1.92
2023-07-18T04:44:30.288Z,2.05
2023-07-18T04:47:00.661Z,2.10
2023-07-18T04:49:30.916Z,2.10
2023-07-18T04:52:01.087Z,2.47
2023-07-18T04:54:34.136Z,2.60
2023-07-18T04:57:06.538Z,1.95
2023-07-18T04:59:36.994Z,2.28
2023-07-18T05:02:07.648Z,1.92
2023-07-18T05:04:37.862Z,2.40
2023-07-18T05:07:08.620Z,1.83
2023-07-18T05:09:41.300Z,2.05
2023-07-18T05:12:11.755Z,2.08
2023-07-18T05:14:41.928Z,1.80
2023-07-18T05:17:12.160Z,1.50
2023-07-18T05:19:42.300Z,2.15
2023-07-18T05:22:12.390Z,1.67
2023-07-18T05:24:45.124Z,1.15
2023-07-18T05:27:15.173Z,1.50
2023-07-18T05:29:45.398Z,1.40
2023-07-18T05:32:15.532Z,1.92
2023-07-18T05:34:45.683Z,1.13
2023-07-18T05:37:15.783Z,1.25
2023-07-18T05:39:48.601Z,1.42
2023-07-18T05:42:18.858Z,1.27
2023-07-18T05:44:49.240Z,1.50
2023-07-18T05:47:19.651Z,1.30
2023-07-18T05:49:49.873Z,1.13
2023-07-18T05:52:20.070Z,1.10
2023-07-18T05:54:53.338Z,1.10
2023-07-18T05:57:23.547Z,0.90
2023-07-18T05:59:53.873Z,1.13
2023-07-18T06:02:24.310Z,0.98
2023-07-18T06:04:54.581Z,0.90
2023-07-18T06:07:24.709Z,1.08
2023-07-18T06:09:57.399Z,0.82
2023-07-18T06:12:27.578Z,1.25
2023-07-18T06:14:57.670Z,1.45
2023-07-18T06:17:27.902Z,1.42
2023-07-18T06:19:58.092Z,1.10
2023-07-18T06:22:28.237Z,1.10
2023-07-18T06:25:00.965Z,1.08
2023-07-18T06:27:31.059Z,1.30
2023-07-18T06:30:01.520Z,1.40
2023-07-18T06:32:31.685Z,1.30
2023-07-18T06:35:13.091Z,1.27
2023-07-18T06:37:51.919Z,1.23
2023-07-18T06:40:24.780Z,1.33
2023-07-18T06:42:54.875Z,1.10
2023-07-18T06:45:25.630Z,1.15
2023-07-18T06:47:55.708Z,1.00
2023-07-18T06:50:25.861Z,1.17
2023-07-18T06:52:55.965Z,1.40
2023-07-18T06:55:28.847Z,1.25
2023-07-18T06:57:59.020Z,1.17
2023-07-18T07:00:29.141Z,1.30
2023-07-18T07:02:59.419Z,1.15
2023-07-18T07:05:29.647Z,1.50
2023-07-18T07:07:59.829Z,1.10
2023-07-18T07:10:32.505Z,1.10
2023-07-18T07:13:02.633Z,1.00
2023-07-18T07:15:32.924Z,1.42
2023-07-18T07:18:03.253Z,1.27
2023-07-18T07:20:34.712Z,1.00
2023-07-18T07:23:04.950Z,1.30
2023-07-18T07:25:37.743Z,1.23
2023-07-18T07:28:08.170Z,0.98
2023-07-18T07:30:38.411Z,1.52
2023-07-18T07:33:09.169Z,1.08
2023-07-18T07:35:39.419Z,1.15
2023-07-18T07:38:09.981Z,1.13
2023-07-18T07:40:42.793Z,1.52
2023-07-18T07:43:12.918Z,1.20
2023-07-18T07:45:43.126Z,1.35
2023-07-18T07:48:13.430Z,1.20
2023-07-18T07:50:43.687Z,0.82
2023-07-18T07:53:14.028Z,1.30
2023-07-18T07:55:46.838Z,1.40
2023-07-18T07:58:17.137Z,0.93
2023-07-18T08:00:47.461Z,1.20
2023-07-18T08:03:17.897Z,1.27
2023-07-18T08:05:48.058Z,1.45
2023-07-18T08:08:18.174Z,0.90
2023-07-18T08:10:50.970Z,1.30
2023-07-18T08:13:21.160Z,1.00
2023-07-18T08:15:51.940Z,1.20
2023-07-18T08:18:22.094Z,1.00
2023-07-18T08:20:52.460Z,1.58
2023-07-18T08:23:22.600Z,1.23
2023-07-18T08:25:56.262Z,1.65
2023-07-18T08:28:26.404Z,1.20
2023-07-18T08:30:56.563Z,1.00
2023-07-18T08:33:26.706Z,1.20
2023-07-18T08:35:56.838Z,1.30
2023-07-18T08:38:26.986Z,1.15
2023-07-18T08:40:59.916Z,1.23
2023-07-18T08:43:30.816Z,0.85
2023-07-18T08:46:01.611Z,1.23
2023-07-18T08:48:31.686Z,1.33
2023-07-18T08:51:03.284Z,1.23
2023-07-18T08:53:35.633Z,1.33
2023-07-18T08:56:09.801Z,1.35
2023-07-18T08:58:40.513Z,1.25
2023-07-18T09:01:11.763Z,1.52
2023-07-18T09:03:42.072Z,1.20
2023-07-18T09:06:20.493Z,1.23
2023-07-18T09:08:50.802Z,1.05
2023-07-18T09:11:26.243Z,1.10
2023-07-18T09:13:56.372Z,1.40
2023-07-18T09:16:27.051Z,1.25
2023-07-18T09:18:58.783Z,1.02
2023-07-18T09:21:31.750Z,1.20
2023-07-18T09:24:01.903Z,1.00
2023-07-18T09:26:34.730Z,1.40
2023-07-18T09:29:05.094Z,0.57
2023-07-18T09:31:35.313Z,1.30
2023-07-18T09:34:14.790Z,1.30
2023-07-18T09:36:44.892Z,1.42
2023-07-18T09:39:15.966Z,1.38
2023-07-18T09:41:48.971Z,1.05
2023-07-18T09:44:31.767Z,1.10
2023-07-18T09:47:04.112Z,1.05
2023-07-18T09:49:34.713Z,1.40
2023-07-18T09:52:08.419Z,1.00
2023-07-18T09:54:38.861Z,1.42
2023-07-18T09:57:13.298Z,1.42
2023-07-18T09:59:43.808Z,1.27
2023-07-18T10:02:14.210Z,1.33
2023-07-18T10:04:44.501Z,1.02
2023-07-18T10:07:14.653Z,1.25
2023-07-18T10:09:44.849Z,1.33
2023-07-18T10:12:17.749Z,1.33
2023-07-18T10:14:58.337Z,1.08
2023-07-18T10:17:29.808Z,1.17
2023-07-18T10:20:00.064Z,1.70
2023-07-18T10:22:30.916Z,1.20
2023-07-18T10:25:06.279Z,1.38
2023-07-18T10:27:43.644Z,1.25
2023-07-18T10:30:17.284Z,1.08
2023-07-18T10:32:54.639Z,1.27
2023-07-18T10:35:26.349Z,1.38
2023-07-18T10:37:57.635Z,1.40
2023-07-18T10:40:37.488Z,1.58
2023-07-18T10:43:12.491Z,1.33
2023-07-18T10:45:43.443Z,1.20
2023-07-18T10:48:16.179Z,1.38
2023-07-18T10:50:47.060Z,1.05
2023-07-18T10:53:18.948Z,1.50
2023-07-18T10:55:50.152Z,1.50
2023-07-18T10:58:24.190Z,1.23
2023-07-18T11:00:54.641Z,1.05
2023-07-18T11:03:27.262Z,1.63
2023-07-18T11:05:57.933Z,1.88
2023-07-18T11:08:28.984Z,1.13
2023-07-18T11:11:00.578Z,1.25
2023-07-18T11:13:35.256Z,1.23
2023-07-18T11:16:06.513Z,1.55
2023-07-18T11:18:38.608Z,1.75
2023-07-18T11:21:09.791Z,1.30
2023-07-18T11:23:41.380Z,1.30
2023-07-18T11:26:16.297Z,1.60
2023-07-18T11:28:53.680Z,1.50
2023-07-18T11:34:02.968Z,1.48
2023-07-18T11:36:34.501Z,1.50
2023-07-18T11:39:05.470Z,1.40
2023-07-18T11:41:36.628Z,1.70
2023-07-18T11:44:10.036Z,1.30
2023-07-18T11:46:40.821Z,1.08
2023-07-18T11:49:11.358Z,1.30
2023-07-18T11:51:41.551Z,1.27
2023-07-18T11:54:11.777Z,1.50
2023-07-18T11:56:42.344Z,1.08
2023-07-18T11:59:15.113Z,1.30
2023-07-18T12:01:45.361Z,1.27
2023-07-18T12:04:16.385Z,0.80
2023-07-18T12:06:48.148Z,0.90
2023-07-18T12:09:18.443Z,1.20
2023-07-18T12:11:48.628Z,1.17
2023-07-18T12:14:21.355Z,1.20
2023-07-18T12:16:51.642Z,1.10
2023-07-18T12:19:22.549Z,1.02
2023-07-18T12:21:52.849Z,1.58
2023-07-18T12:24:23.301Z,0.95
2023-07-18T12:26:53.486Z,0.95
2023-07-18T12:29:26.352Z,1.27
2023-07-18T12:31:56.551Z,1.10
2023-07-18T12:34:28.660Z,1.10
2023-07-18T12:36:58.782Z,1.02
2023-07-18T12:39:29.054Z,1.10
2023-07-18T12:41:59.143Z,0.90
2023-07-18T12:44:43.775Z,1.00
2023-07-18T12:47:13.981Z,1.17
2023-07-18T12:52:17.247Z,1.20
2023-07-18T12:54:47.612Z,1.13
2023-07-18T12:57:17.721Z,1.10
2023-07-18T12:59:50.492Z,1.08
2023-07-18T13:02:20.627Z,1.00
2023-07-18T13:04:50.879Z,1.05
2023-07-18T13:07:21.067Z,1.20
2023-07-18T13:09:51.283Z,0.98
2023-07-18T13:12:21.707Z,0.95
2023-07-18T13:14:54.543Z,1.00
2023-07-18T13:17:25.112Z,1.00
2023-07-18T13:19:55.569Z,1.30
2023-07-18T13:22:25.773Z,1.23
2023-07-18T13:24:55.887Z,1.23
2023-07-18T13:27:26.426Z,0.88
2023-07-18T13:29:59.231Z,1.30
2023-07-18T13:32:29.409Z,1.10
2023-07-18T13:34:59.502Z,1.10
2023-07-18T13:37:29.737Z,1.10
2023-07-18T13:39:59.870Z,1.15
2023-07-18T13:42:31.904Z,1.00
2023-07-18T13:45:09.089Z,1.25
2023-07-18T13:47:41.276Z,1.20
2023-07-18T13:52:46.113Z,1.30
2023-07-18T13:55:16.797Z,1.17
2023-07-18T13:57:47.132Z,0.95
2023-07-18T14:00:21.105Z,1.20
2023-07-18T14:02:51.438Z,0.90
2023-07-18T14:05:21.917Z,1.02
2023-07-18T14:07:52.177Z,1.48
2023-07-18T14:10:22.378Z,1.00
2023-07-18T14:12:52.536Z,1.20
2023-07-18T14:15:25.339Z,1.70
2023-07-18T14:17:55.931Z,1.27
2023-07-18T14:20:26.270Z,1.50
2023-07-18T14:22:56.436Z,1.30
2023-07-18T14:25:26.808Z,1.13
2023-07-18T14:27:57.111Z,1.35
2023-07-18T14:30:29.860Z,1.33
2023-07-18T14:33:02.288Z,1.20
2023-07-18T14:35:34.798Z,1.05
2023-07-18T14:38:04.904Z,1.45
2023-07-18T14:40:35.080Z,1.27
2023-07-18T14:43:09.817Z,1.30
2023-07-18T14:45:43.103Z,1.23
2023-07-18T14:48:13.321Z,1.67
2023-07-18T14:50:43.568Z,1.13
2023-07-18T14:53:13.772Z,1.77
2023-07-18T14:55:45.162Z,1.02
2023-07-18T14:58:15.493Z,1.20
2023-07-18T15:00:50.174Z,1.40
2023-07-18T15:03:20.605Z,1.77
2023-07-18T15:05:51.218Z,1.23
2023-07-18T15:08:21.416Z,1.40
2023-07-18T15:10:51.633Z,1.23
2023-07-18T15:13:21.835Z,1.60
2023-07-18T15:15:54.663Z,1.10
2023-07-18T15:18:24.872Z,1.33
2023-07-18T15:20:55.036Z,1.02
2023-07-18T15:23:25.178Z,1.15
2023-07-18T15:25:55.358Z,1.23
2023-07-18T15:28:26.283Z,1.20
2023-07-18T15:30:59.087Z,1.10
2023-07-18T15:33:29.212Z,1.23
2023-07-18T15:35:59.371Z,1.30
2023-07-18T15:38:29.494Z,0.93
2023-07-18T15:40:59.672Z,1.30
2023-07-18T15:43:29.880Z,1.40
2023-07-18T15:46:02.849Z,1.10
2023-07-18T15:48:33.155Z,0.95
2023-07-18T15:51:03.330Z,1.55
2023-07-18T15:53:33.816Z,1.33
2023-07-18T15:56:03.925Z,1.30
2023-07-18T15:58:34.392Z,1.58
2023-07-18T16:01:07.168Z,1.55
2023-07-18T16:03:37.502Z,1.58
2023-07-18T16:06:07.708Z,1.23
2023-07-18T16:08:37.845Z,1.20
2023-07-18T16:11:07.988Z,1.15
2023-07-18T16:13:40.281Z,1.30
2023-07-18T16:16:14.131Z,1.40
2023-07-18T16:18:58.326Z,1.55
2023-07-18T16:21:29.151Z,1.48
2023-07-18T16:23:59.549Z,1.60
2023-07-18T16:26:30.339Z,1.55
2023-07-18T16:29:00.499Z,1.70
2023-07-18T16:31:33.476Z,1.40
2023-07-18T16:34:03.732Z,1.67
2023-07-18T16:36:34.025Z,1.30
2023-07-18T16:39:04.157Z,1.45
2023-07-18T16:41:34.590Z,1.40
2023-07-18T16:44:04.858Z,1.58
2023-07-18T16:46:37.783Z,1.00
2023-07-18T16:49:07.942Z,1.30
2023-07-18T16:51:38.765Z,1.10
2023-07-18T16:54:08.958Z,1.25
2023-07-18T16:56:39.239Z,1.38
2023-07-18T16:59:09.493Z,1.13
2023-07-18T17:01:44.320Z,1.40
2023-07-18T17:04:15.146Z,1.23
2023-07-18T17:06:45.316Z,1.17
2023-07-18T17:09:17.056Z,1.33
2023-07-18T17:11:47.489Z,1.30
2023-07-18T17:14:17.693Z,1.50
2023-07-18T17:16:50.462Z,1.35
2023-07-18T17:19:20.682Z,1.40
2023-07-18T17:21:50.896Z,1.30
2023-07-18T17:24:21.157Z,1.50
2023-07-18T17:26:52.084Z,1.20
2023-07-18T17:29:22.308Z,1.30
2023-07-18T17:31:55.056Z,3.00
2023-07-18T17:34:27.983Z,3.20
2023-07-18T17:36:58.422Z,2.30
2023-07-18T17:39:29.178Z,2.05
2023-07-18T17:42:01.291Z,3.05
2023-07-18T17:44:31.620Z,2.60
2023-07-18T17:47:04.500Z,2.33
2023-07-18T17:49:34.785Z,1.98
2023-07-18T17:52:05.063Z,1.60
2023-07-18T17:54:35.211Z,2.10
2023-07-18T17:57:05.494Z,2.65
2023-07-18T17:59:36.422Z,11.05
2023-07-18T18:02:09.735Z,5.10
2023-07-18T18:04:40.631Z,2.33
2023-07-18T18:07:13.374Z,2.70
2023-07-18T18:09:44.086Z,1.75
2023-07-18T18:12:14.326Z,1.63
2023-07-18T18:14:44.652Z,1.27
2023-07-18T18:17:17.533Z,1.70
2023-07-18T18:19:48.096Z,1.83
2023-07-18T18:22:18.564Z,2.70
2023-07-18T18:24:48.755Z,1.50
2023-07-18T18:27:18.916Z,1.30
2023-07-18T18:29:49.278Z,1.60
2023-07-18T18:32:22.091Z,1.40
2023-07-18T18:35:06.427Z,1.67
2023-07-18T18:37:37.644Z,1.85
2023-07-18T18:40:08.842Z,1.52
2023-07-18T18:42:39.000Z,1.55
2023-07-18T18:45:10.272Z,1.85
2023-07-18T18:47:47.787Z,1.77
2023-07-18T18:50:19.786Z,1.70
2023-07-18T18:52:50.089Z,2.00
2023-07-18T18:55:21.975Z,1.80
2023-07-18T18:57:53.309Z,1.70
2023-07-18T19:00:23.574Z,1.73
2023-07-18T19:02:59.031Z,1.38
2023-07-18T19:05:30.176Z,1.50
2023-07-18T19:08:00.307Z,1.52
2023-07-18T19:10:31.410Z,1.98
2023-07-18T19:13:01.954Z,2.15
2023-07-18T19:15:32.179Z,2.08
2023-07-18T19:18:05.243Z,2.40
2023-07-18T19:20:35.717Z,1.70
2023-07-18T19:23:05.956Z,2.25
2023-07-18T19:25:36.164Z,1.42
2023-07-18T19:28:06.665Z,1.48
2023-07-18T19:30:36.894Z,1.40
2023-07-18T19:33:09.689Z,1.90
2023-07-18T19:35:40.164Z,2.85
2023-07-18T19:38:10.458Z,3.13
2023-07-18T19:40:40.673Z,5.75
2023-07-18T19:43:10.929Z,6.85
2023-07-18T19:45:41.137Z,8.20
2023-07-18T19:48:13.959Z,2.58
2023-07-18T19:50:44.396Z,2.30
2023-07-18T19:53:14.838Z,2.00
2023-07-18T19:55:45.936Z,1.92
2023-07-18T19:58:16.114Z,1.75
2023-07-18T20:00:46.342Z,1.90
2023-07-18T20:03:19.309Z,1.80
2023-07-18T20:05:49.613Z,1.92
2023-07-18T20:08:19.785Z,1.73
2023-07-18T20:10:49.974Z,1.40
2023-07-18T20:13:20.401Z,1.40
2023-07-18T20:15:50.642Z,1.50
2023-07-18T20:18:23.493Z,1.58
2023-07-18T20:20:53.703Z,1.65
2023-07-18T20:23:23.863Z,2.00
2023-07-18T20:25:54.137Z,1.60
2023-07-18T20:28:24.369Z,1.95
2023-07-18T20:30:54.515Z,3.33
2023-07-18T20:33:27.616Z,2.85
2023-07-18T20:35:57.985Z,3.20
2023-07-18T20:38:28.230Z,2.72
2023-07-18T20:40:59.056Z,2.53
2023-07-18T20:43:29.300Z,2.42
2023-07-18T20:46:00.062Z,2.10
2023-07-18T20:48:34.334Z,2.10
2023-07-18T20:51:04.596Z,2.40
2023-07-18T20:53:34.837Z,2.50
2023-07-18T20:56:05.122Z,2.00
2023-07-18T20:58:36.390Z,2.00
2023-07-18T21:01:06.624Z,1.63
2023-07-18T21:03:39.552Z,1.90
2023-07-18T21:06:09.755Z,1.77
2023-07-18T21:08:39.990Z,1.67
2023-07-18T21:11:10.211Z,1.80
2023-07-18T21:13:40.488Z,2.03
2023-07-18T21:16:11.540Z,2.55
2023-07-18T21:18:44.409Z,2.05
2023-07-18T21:21:14.649Z,2.15
2023-07-18T21:23:45.902Z,1.80
2023-07-18T21:26:16.219Z,2.08
2023-07-18T21:29:02.037Z,1.83
2023-07-18T21:31:34.672Z,2.00
2023-07-18T21:34:08.305Z,1.63
2023-07-18T21:36:38.888Z,1.80
2023-07-18T21:39:09.378Z,1.73
2023-07-18T21:41:39.555Z,2.42
2023-07-18T21:44:09.772Z,1.92
2023-07-18T21:46:40.298Z,1.98
2023-07-18T21:49:13.179Z,1.75
2023-07-18T21:51:43.376Z,1.95
2023-07-18T21:54:14.569Z,2.47
2023-07-18T21:56:44.927Z,2.13
2023-07-18T21:59:15.176Z,2.45
2023-07-18T22:01:46.737Z,3.00
2023-07-18T22:04:19.701Z,3.13
2023-07-18T22:06:50.027Z,2.70
2023-07-18T22:09:20.160Z,2.30
2023-07-18T22:11:52.043Z,2.17
2023-07-18T22:14:22.549Z,2.00
2023-07-18T22:16:52.739Z,2.53
2023-07-18T22:19:25.611Z,1.80
2023-07-18T22:21:55.876Z,1.73
2023-07-18T22:24:26.133Z,2.08
2023-07-18T22:26:56.422Z,1.75
2023-07-18T22:29:27.165Z,1.80
2023-07-18T22:31:57.320Z,2.05
2023-07-18T22:34:30.128Z,1.80
2023-07-18T22:37:00.510Z,1.77
2023-07-18T22:39:35.943Z,2.28
2023-07-18T22:42:17.989Z,2.88
2023-07-18T22:44:49.174Z,2.10
2023-07-18T22:47:19.936Z,1.90
2023-07-18T22:49:52.895Z,1.85
2023-07-18T22:52:23.038Z,1.60
2023-07-18T22:54:53.727Z,2.00
2023-07-18T22:57:23.988Z,2.00
2023-07-18T22:59:54.172Z,2.00
2023-07-18T23:02:24.700Z,2.15
2023-07-18T23:04:57.618Z,2.00
2023-07-18T23:07:27.882Z,1.90
2023-07-18T23:09:58.005Z,2.33
2023-07-18T23:12:28.361Z,1.95
2023-07-18T23:14:58.605Z,2.10
2023-07-18T23:17:28.905Z,1.98
2023-07-18T23:20:01.744Z,1.75
2023-07-18T23:22:32.464Z,1.85
2023-07-18T23:25:04.104Z,2.00
2023-07-18T23:27:34.359Z,1.85
2023-07-18T23:30:04.622Z,2.05
2023-07-18T23:32:35.389Z,1.90
2023-07-18T23:35:09.337Z,1.80
2023-07-18T23:37:39.500Z,2.17
2023-07-18T23:40:11.442Z,1.65
2023-07-18T23:42:42.347Z,2.20
2023-07-18T23:45:13.931Z,1.60
2023-07-18T23:47:44.191Z,1.85
2023-07-18T23:50:17.133Z,1.92
2023-07-18T23:52:47.279Z,1.90
2023-07-18T23:55:17.534Z,2.17
2023-07-18T23:57:47.733Z,2.15
